sensor_id;sensor_type;location;lat;lon;timestamp;pressure;altitude;pressure_sealevel;temperature;humidity
50774;BME280;36745;48.544;8.918;2022-07-03T00:01:45;97592.84;;;14.45;74.71
50774;BME280;36745;48.544;8.918;2022-07-03T00:04:45;97596.25;;;14.40;74.83
50774;BME280;36745;48.544;8.918;2022-07-03T00:07:46;97593.47;;;14.40;74.35
50774;BME280;36745;48.544;8.918;2022-07-03T00:10:46;97596.41;;;14.37;75.08
50774;BME280;36745;48.544;8.918;2022-07-03T00:13:47;97603.97;;;14.36;75.31
50774;BME280;36745;48.544;8.918;2022-07-03T00:16:47;97601.81;;;14.31;76.03
50774;BME280;36745;48.544;8.918;2022-07-03T00:19:47;97597.63;;;14.36;74.76
50774;BME280;36745;48.544;8.918;2022-07-03T00:22:49;97605.22;;;14.26;75.13
50774;BME280;36745;48.544;8.918;2022-07-03T00:25:50;97597.22;;;14.10;76.67
50774;BME280;36745;48.544;8.918;2022-07-03T00:28:52;97596.28;;;14.13;76.74
50774;BME280;36745;48.544;8.918;2022-07-03T00:31:55;97608.31;;;14.19;76.87
50774;BME280;36745;48.544;8.918;2022-07-03T00:34:56;97603.97;;;14.18;77.07
50774;BME280;36745;48.544;8.918;2022-07-03T00:37:58;97593.94;;;14.11;76.85
50774;BME280;36745;48.544;8.918;2022-07-03T00:41:00;97595.34;;;14.07;77.47
50774;BME280;36745;48.544;8.918;2022-07-03T00:44:02;97593.34;;;14.07;77.82
50774;BME280;36745;48.544;8.918;2022-07-03T00:47:03;97593.50;;;14.04;77.36
50774;BME280;36745;48.544;8.918;2022-07-03T00:50:08;97595.34;;;13.98;77.69
50774;BME280;36745;48.544;8.918;2022-07-03T00:53:10;97592.25;;;13.96;78.02
50774;BME280;36745;48.544;8.918;2022-07-03T00:56:13;97590.75;;;13.95;77.86
50774;BME280;36745;48.544;8.918;2022-07-03T00:59:16;97581.94;;;13.87;78.42
50774;BME280;36745;48.544;8.918;2022-07-03T01:05:55;97591.97;;;13.94;77.71
50774;BME280;36745;48.544;8.918;2022-07-03T01:09:00;97593.81;;;13.79;78.82
50774;BME280;36745;48.544;8.918;2022-07-03T01:12:07;97599.38;;;13.79;78.49
50774;BME280;36745;48.544;8.918;2022-07-03T01:15:12;97598.72;;;13.75;78.04
50774;BME280;36745;48.544;8.918;2022-07-03T01:28:21;97595.78;;;13.51;78.56
50774;BME280;36745;48.544;8.918;2022-07-03T01:31:24;97607.00;;;13.47;78.66
50774;BME280;36745;48.544;8.918;2022-07-03T01:34:33;97612.88;;;13.40;78.60
50774;BME280;36745;48.544;8.918;2022-07-03T01:37:35;97603.56;;;13.34;79.36
50774;BME280;36745;48.544;8.918;2022-07-03T01:40:41;97602.69;;;13.37;78.92
50774;BME280;36745;48.544;8.918;2022-07-03T01:43:47;97607.25;;;13.31;79.33
50774;BME280;36745;48.544;8.918;2022-07-03T01:46:48;97603.84;;;13.27;79.69
50774;BME280;36745;48.544;8.918;2022-07-03T01:49:49;97605.06;;;13.26;79.59
50774;BME280;36745;48.544;8.918;2022-07-03T01:52:51;97600.47;;;13.23;80.05
50774;BME280;36745;48.544;8.918;2022-07-03T01:55:58;97594.13;;;13.22;79.63
50774;BME280;36745;48.544;8.918;2022-07-03T01:58:59;97597.06;;;13.19;80.46
50774;BME280;36745;48.544;8.918;2022-07-03T02:05:43;97596.13;;;13.22;80.79
50774;BME280;36745;48.544;8.918;2022-07-03T02:09:09;97586.59;;;13.23;81.09
50774;BME280;36745;48.544;8.918;2022-07-03T02:12:12;97586.75;;;13.19;81.33
50774;BME280;36745;48.544;8.918;2022-07-03T02:15:17;97589.81;;;13.21;80.66
50774;BME280;36745;48.544;8.918;2022-07-03T02:18:29;97587.97;;;13.18;80.07
50774;BME280;36745;48.544;8.918;2022-07-03T02:21:31;97581.75;;;13.05;80.37
50774;BME280;36745;48.544;8.918;2022-07-03T02:24:38;97583.88;;;12.92;80.37
50774;BME280;36745;48.544;8.918;2022-07-03T02:27:44;97585.88;;;12.92;80.88
50774;BME280;36745;48.544;8.918;2022-07-03T02:30:48;97584.31;;;12.81;81.47
50774;BME280;36745;48.544;8.918;2022-07-03T02:33:50;97575.38;;;12.86;80.73
50774;BME280;36745;48.544;8.918;2022-07-03T02:36:59;97583.22;;;12.88;81.23
50774;BME280;36745;48.544;8.918;2022-07-03T02:40:08;97587.69;;;12.85;80.24
50774;BME280;36745;48.544;8.918;2022-07-03T02:44:02;97584.41;;;12.78;80.43
50774;BME280;36745;48.544;8.918;2022-07-03T02:47:03;97587.94;;;12.69;80.67
50774;BME280;36745;48.544;8.918;2022-07-03T02:50:08;97593.16;;;12.67;81.16
50774;BME280;36745;48.544;8.918;2022-07-03T02:53:26;97603.25;;;12.61;81.58
50774;BME280;36745;48.544;8.918;2022-07-03T03:00:03;97603.66;;;12.51;82.26
50774;BME280;36745;48.544;8.918;2022-07-03T03:03:04;97610.81;;;12.61;81.01
50774;BME280;36745;48.544;8.918;2022-07-03T03:06:15;97609.22;;;12.51;81.86
50774;BME280;36745;48.544;8.918;2022-07-03T03:09:22;97610.56;;;12.46;82.08
50774;BME280;36745;48.544;8.918;2022-07-03T03:12:31;97621.66;;;12.46;81.60
50774;BME280;36745;48.544;8.918;2022-07-03T03:15:33;97626.34;;;12.36;82.06
50774;BME280;36745;48.544;8.918;2022-07-03T03:18:40;97621.59;;;12.37;81.51
50774;BME280;36745;48.544;8.918;2022-07-03T03:25:45;97621.66;;;12.24;81.94
50774;BME280;36745;48.544;8.918;2022-07-03T03:28:46;97623.44;;;12.18;82.59
50774;BME280;36745;48.544;8.918;2022-07-03T03:31:46;97630.41;;;12.23;82.34
50774;BME280;36745;48.544;8.918;2022-07-03T03:34:47;97621.47;;;12.19;82.98
50774;BME280;36745;48.544;8.918;2022-07-03T03:37:48;97632.53;;;12.19;82.99
50774;BME280;36745;48.544;8.918;2022-07-03T03:40:49;97626.88;;;12.22;82.79
50774;BME280;36745;48.544;8.918;2022-07-03T03:43:50;97629.31;;;12.20;83.17
50774;BME280;36745;48.544;8.918;2022-07-03T03:46:50;97634.72;;;12.24;83.52
50774;BME280;36745;48.544;8.918;2022-07-03T03:49:51;97636.91;;;12.29;83.53
50774;BME280;36745;48.544;8.918;2022-07-03T03:52:51;97637.56;;;12.33;83.35
50774;BME280;36745;48.544;8.918;2022-07-03T03:56:12;97639.38;;;12.27;82.82
50774;BME280;36745;48.544;8.918;2022-07-03T03:59:15;97633.75;;;12.18;83.48
50774;BME280;36745;48.544;8.918;2022-07-03T04:02:16;97634.84;;;12.20;82.39
50774;BME280;36745;48.544;8.918;2022-07-03T04:05:16;97637.44;;;12.15;83.26
50774;BME280;36745;48.544;8.918;2022-07-03T04:08:18;97638.97;;;12.16;83.13
50774;BME280;36745;48.544;8.918;2022-07-03T04:11:18;97638.19;;;12.15;83.79
50774;BME280;36745;48.544;8.918;2022-07-03T04:14:19;97637.97;;;12.22;84.01
50774;BME280;36745;48.544;8.918;2022-07-03T04:17:19;97637.81;;;12.26;84.59
50774;BME280;36745;48.544;8.918;2022-07-03T04:20:20;97643.75;;;12.37;84.34
50774;BME280;36745;48.544;8.918;2022-07-03T04:23:20;97649.94;;;12.41;84.45
50774;BME280;36745;48.544;8.918;2022-07-03T04:26:21;97662.88;;;12.44;84.52
50774;BME280;36745;48.544;8.918;2022-07-03T04:29:21;97664.75;;;12.47;83.62
50774;BME280;36745;48.544;8.918;2022-07-03T04:32:22;97670.53;;;12.40;83.61
50774;BME280;36745;48.544;8.918;2022-07-03T04:35:22;97668.44;;;12.44;84.58
50774;BME280;36745;48.544;8.918;2022-07-03T04:38:23;97662.16;;;12.74;85.18
50774;BME280;36745;48.544;8.918;2022-07-03T04:41:23;97660.97;;;13.46;86.12
50774;BME280;36745;48.544;8.918;2022-07-03T04:44:24;97661.66;;;13.96;85.29
50774;BME280;36745;48.544;8.918;2022-07-03T04:47:24;97670.03;;;14.32;84.26
50774;BME280;36745;48.544;8.918;2022-07-03T04:50:24;97665.56;;;14.53;83.75
50774;BME280;36745;48.544;8.918;2022-07-03T04:53:25;97663.03;;;14.82;83.54
50774;BME280;36745;48.544;8.918;2022-07-03T04:56:25;97664.97;;;15.09;82.93
50774;BME280;36745;48.544;8.918;2022-07-03T04:59:26;97665.75;;;15.43;82.52
50774;BME280;36745;48.544;8.918;2022-07-03T05:02:26;97664.66;;;15.82;82.24
50774;BME280;36745;48.544;8.918;2022-07-03T05:05:27;97668.13;;;16.15;81.37
50774;BME280;36745;48.544;8.918;2022-07-03T05:08:27;97683.56;;;16.64;81.31
50774;BME280;36745;48.544;8.918;2022-07-03T05:11:28;97674.13;;;17.20;80.70
50774;BME280;36745;48.544;8.918;2022-07-03T05:14:28;97679.44;;;17.68;80.32
50774;BME280;36745;48.544;8.918;2022-07-03T05:17:29;97669.56;;;18.27;79.66
50774;BME280;36745;48.544;8.918;2022-07-03T05:20:29;97665.03;;;18.50;78.21
50774;BME280;36745;48.544;8.918;2022-07-03T05:23:29;97667.53;;;18.68;77.72
50774;BME280;36745;48.544;8.918;2022-07-03T05:26:30;97667.31;;;19.03;77.59
50774;BME280;36745;48.544;8.918;2022-07-03T05:29:30;97668.31;;;19.63;76.56
50774;BME280;36745;48.544;8.918;2022-07-03T05:32:31;97666.44;;;19.86;75.41
50774;BME280;36745;48.544;8.918;2022-07-03T05:35:31;97665.69;;;19.91;74.10
50774;BME280;36745;48.544;8.918;2022-07-03T05:38:32;97668.16;;;20.20;74.22
50774;BME280;36745;48.544;8.918;2022-07-03T05:41:51;97663.72;;;20.62;74.11
50774;BME280;36745;48.544;8.918;2022-07-03T05:44:51;97661.41;;;20.66;72.12
50774;BME280;36745;48.544;8.918;2022-07-03T05:47:52;97664.28;;;20.94;71.98
50774;BME280;36745;48.544;8.918;2022-07-03T05:50:53;97674.00;;;20.98;70.71
50774;BME280;36745;48.544;8.918;2022-07-03T05:53:53;97664.28;;;20.94;69.28
50774;BME280;36745;48.544;8.918;2022-07-03T05:56:53;97666.63;;;21.29;67.88
50774;BME280;36745;48.544;8.918;2022-07-03T05:59:54;97663.56;;;21.38;66.78
50774;BME280;36745;48.544;8.918;2022-07-03T06:02:54;97656.66;;;21.50;66.56
50774;BME280;36745;48.544;8.918;2022-07-03T06:05:55;97661.22;;;21.58;65.38
50774;BME280;36745;48.544;8.918;2022-07-03T06:08:55;97656.91;;;21.46;64.74
50774;BME280;36745;48.544;8.918;2022-07-03T06:11:55;97658.91;;;21.79;64.79
50774;BME280;36745;48.544;8.918;2022-07-03T06:14:57;97661.38;;;22.11;63.91
50774;BME280;36745;48.544;8.918;2022-07-03T06:17:58;97666.00;;;22.14;63.04
50774;BME280;36745;48.544;8.918;2022-07-03T06:20:58;97661.84;;;22.26;62.14
50774;BME280;36745;48.544;8.918;2022-07-03T06:23:59;97653.56;;;22.50;62.05
50774;BME280;36745;48.544;8.918;2022-07-03T06:27:00;97659.22;;;22.39;61.41
50774;BME280;36745;48.544;8.918;2022-07-03T06:30:00;97650.38;;;22.70;61.87
50774;BME280;36745;48.544;8.918;2022-07-03T06:33:01;97653.75;;;23.04;61.29
50774;BME280;36745;48.544;8.918;2022-07-03T06:36:01;97656.53;;;23.45;59.69
50774;BME280;36745;48.544;8.918;2022-07-03T06:39:01;97658.28;;;23.48;59.14
50774;BME280;36745;48.544;8.918;2022-07-03T06:42:02;97653.63;;;23.51;59.01
50774;BME280;36745;48.544;8.918;2022-07-03T06:45:03;97654.19;;;23.74;59.05
50774;BME280;36745;48.544;8.918;2022-07-03T06:48:04;97654.19;;;24.22;59.13
50774;BME280;36745;48.544;8.918;2022-07-03T06:51:04;97665.06;;;24.37;57.86
50774;BME280;36745;48.544;8.918;2022-07-03T06:54:05;97658.38;;;24.59;57.22
50774;BME280;36745;48.544;8.918;2022-07-03T06:57:05;97655.91;;;24.87;56.75
50774;BME280;36745;48.544;8.918;2022-07-03T07:00:06;97658.63;;;25.11;56.05
50774;BME280;36745;48.544;8.918;2022-07-03T07:03:07;97663.63;;;25.37;55.65
50774;BME280;36745;48.544;8.918;2022-07-03T07:06:07;97653.91;;;25.78;55.12
50774;BME280;36745;48.544;8.918;2022-07-03T07:09:08;97655.78;;;25.75;54.01
50774;BME280;36745;48.544;8.918;2022-07-03T07:12:08;97655.75;;;25.62;53.64
50774;BME280;36745;48.544;8.918;2022-07-03T07:15:09;97655.31;;;25.58;53.57
50774;BME280;36745;48.544;8.918;2022-07-03T07:18:10;97666.47;;;25.95;53.47
50774;BME280;36745;48.544;8.918;2022-07-03T07:21:12;97650.59;;;26.19;52.91
50774;BME280;36745;48.544;8.918;2022-07-03T07:24:13;97655.66;;;26.73;52.39
50774;BME280;36745;48.544;8.918;2022-07-03T07:27:13;97657.13;;;26.87;50.80
50774;BME280;36745;48.544;8.918;2022-07-03T07:30:14;97649.44;;;27.29;49.91
50774;BME280;36745;48.544;8.918;2022-07-03T07:33:14;97644.63;;;27.37;49.70
50774;BME280;36745;48.544;8.918;2022-07-03T07:36:15;97645.91;;;27.77;48.92
50774;BME280;36745;48.544;8.918;2022-07-03T07:39:15;97647.03;;;27.74;47.96
50774;BME280;36745;48.544;8.918;2022-07-03T07:42:16;97639.97;;;27.47;47.76
50774;BME280;36745;48.544;8.918;2022-07-03T07:45:17;97648.34;;;27.53;47.11
50774;BME280;36745;48.544;8.918;2022-07-03T07:48:17;97649.53;;;27.57;46.32
50774;BME280;36745;48.544;8.918;2022-07-03T07:51:18;97651.06;;;27.17;46.05
50774;BME280;36745;48.544;8.918;2022-07-03T07:54:18;97647.16;;;27.07;46.06
50774;BME280;36745;48.544;8.918;2022-07-03T07:57:19;97647.41;;;26.62;44.49
50774;BME280;36745;48.544;8.918;2022-07-03T08:00:20;97652.56;;;25.97;43.45
50774;BME280;36745;48.544;8.918;2022-07-03T08:03:21;97649.69;;;26.63;44.17
50774;BME280;36745;48.544;8.918;2022-07-03T08:06:40;97638.13;;;26.74;43.77
50774;BME280;36745;48.544;8.918;2022-07-03T08:09:41;97630.91;;;27.69;43.17
50774;BME280;36745;48.544;8.918;2022-07-03T08:12:41;97625.91;;;27.34;42.22
50774;BME280;36745;48.544;8.918;2022-07-03T08:15:42;97625.88;;;28.40;41.68
50774;BME280;36745;48.544;8.918;2022-07-03T08:18:43;97621.81;;;28.64;40.95
50774;BME280;36745;48.544;8.918;2022-07-03T08:21:43;97621.81;;;27.92;39.50
50774;BME280;36745;48.544;8.918;2022-07-03T08:24:44;97622.13;;;28.45;39.55
50774;BME280;36745;48.544;8.918;2022-07-03T08:27:44;97620.47;;;28.65;39.05
50774;BME280;36745;48.544;8.918;2022-07-03T08:30:45;97617.38;;;28.98;39.02
50774;BME280;36745;48.544;8.918;2022-07-03T08:33:45;97618.47;;;28.88;37.89
50774;BME280;36745;48.544;8.918;2022-07-03T08:36:46;97616.84;;;29.15;38.70
50774;BME280;36745;48.544;8.918;2022-07-03T08:39:47;97604.13;;;29.01;38.41
50774;BME280;36745;48.544;8.918;2022-07-03T08:42:52;97611.53;;;29.34;37.56
50774;BME280;36745;48.544;8.918;2022-07-03T08:45:54;97607.94;;;29.41;36.83
50774;BME280;36745;48.544;8.918;2022-07-03T08:48:54;97604.88;;;28.94;37.00
50774;BME280;36745;48.544;8.918;2022-07-03T08:51:55;97605.16;;;28.68;36.82
50774;BME280;36745;48.544;8.918;2022-07-03T08:54:56;97612.78;;;28.37;36.02
50774;BME280;36745;48.544;8.918;2022-07-03T08:57:58;97607.44;;;28.77;35.55
50774;BME280;36745;48.544;8.918;2022-07-03T09:01:00;97602.97;;;29.04;35.68
50774;BME280;36745;48.544;8.918;2022-07-03T09:04:02;97598.88;;;29.66;36.54
50774;BME280;36745;48.544;8.918;2022-07-03T09:07:06;97597.72;;;29.69;34.68
50774;BME280;36745;48.544;8.918;2022-07-03T09:10:09;97597.53;;;29.52;33.95
50774;BME280;36745;48.544;8.918;2022-07-03T09:13:11;97591.44;;;28.43;33.97
50774;BME280;36745;48.544;8.918;2022-07-03T09:16:15;97590.50;;;28.12;34.24
50774;BME280;36745;48.544;8.918;2022-07-03T09:19:39;97585.28;;;28.24;33.96
50774;BME280;36745;48.544;8.918;2022-07-03T09:22:39;97595.81;;;29.33;34.75
50774;BME280;36745;48.544;8.918;2022-07-03T09:25:54;97594.66;;;29.21;33.11
50774;BME280;36745;48.544;8.918;2022-07-03T09:28:54;97596.19;;;29.68;34.12
50774;BME280;36745;48.544;8.918;2022-07-03T09:31:56;97585.94;;;29.88;33.26
50774;BME280;36745;48.544;8.918;2022-07-03T09:35:24;97589.59;;;30.36;32.89
50774;BME280;36745;48.544;8.918;2022-07-03T09:38:25;97588.53;;;30.01;32.89
50774;BME280;36745;48.544;8.918;2022-07-03T09:41:26;97592.69;;;30.22;31.37
50774;BME280;36745;48.544;8.918;2022-07-03T09:44:43;97587.78;;;30.00;31.81
50774;BME280;36745;48.544;8.918;2022-07-03T09:47:46;97579.75;;;31.01;32.00
50774;BME280;36745;48.544;8.918;2022-07-03T09:50:47;97581.22;;;31.10;31.19
50774;BME280;36745;48.544;8.918;2022-07-03T09:53:58;97589.03;;;30.77;31.07
50774;BME280;36745;48.544;8.918;2022-07-03T09:56:58;97578.78;;;29.49;30.09
50774;BME280;36745;48.544;8.918;2022-07-03T10:03:20;97576.84;;;29.74;31.25
50774;BME280;36745;48.544;8.918;2022-07-03T10:06:21;97576.09;;;29.58;31.11
50774;BME280;36745;48.544;8.918;2022-07-03T10:09:27;97573.72;;;30.02;30.43
50774;BME280;36745;48.544;8.918;2022-07-03T10:12:28;97572.22;;;30.01;30.44
50774;BME280;36745;48.544;8.918;2022-07-03T10:15:30;97577.19;;;29.93;30.90
50774;BME280;36745;48.544;8.918;2022-07-03T10:18:32;97570.22;;;30.42;31.24
50774;BME280;36745;48.544;8.918;2022-07-03T10:21:35;97566.50;;;30.64;30.02
50774;BME280;36745;48.544;8.918;2022-07-03T10:24:37;97568.53;;;30.71;28.72
50774;BME280;36745;48.544;8.918;2022-07-03T10:27:40;97567.22;;;30.24;29.61
50774;BME280;36745;48.544;8.918;2022-07-03T10:30:42;97569.13;;;30.30;29.39
50774;BME280;36745;48.544;8.918;2022-07-03T10:33:44;97561.34;;;30.22;29.22
50774;BME280;36745;48.544;8.918;2022-07-03T10:36:47;97557.09;;;28.85;29.11
50774;BME280;36745;48.544;8.918;2022-07-03T10:40:07;97556.38;;;29.22;30.14
50774;BME280;36745;48.544;8.918;2022-07-03T10:43:30;97542.34;;;29.32;29.91
50774;BME280;36745;48.544;8.918;2022-07-03T10:46:49;97551.41;;;29.45;29.66
50774;BME280;36745;48.544;8.918;2022-07-03T10:50:04;97556.53;;;29.70;29.91
50774;BME280;36745;48.544;8.918;2022-07-03T10:53:23;97549.94;;;29.60;29.25
50774;BME280;36745;48.544;8.918;2022-07-03T10:56:23;97544.22;;;29.52;29.49
50774;BME280;36745;48.544;8.918;2022-07-03T11:02:44;97549.88;;;29.75;29.30
50774;BME280;36745;48.544;8.918;2022-07-03T11:05:45;97542.72;;;29.21;29.31
50774;BME280;36745;48.544;8.918;2022-07-03T11:09:04;97537.41;;;29.17;29.56
50774;BME280;36745;48.544;8.918;2022-07-03T11:12:05;97546.44;;;28.85;28.83
50774;BME280;36745;48.544;8.918;2022-07-03T11:18:36;97529.09;;;29.12;29.53
50774;BME280;36745;48.544;8.918;2022-07-03T11:21:42;97533.41;;;29.35;29.42
50774;BME280;36745;48.544;8.918;2022-07-03T11:24:52;97526.78;;;29.02;29.39
50774;BME280;36745;48.544;8.918;2022-07-03T11:27:52;97527.53;;;29.03;29.40
50774;BME280;36745;48.544;8.918;2022-07-03T11:34:18;97510.06;;;28.69;28.70
50774;BME280;36745;48.544;8.918;2022-07-03T11:37:19;97506.03;;;28.49;29.25
50774;BME280;36745;48.544;8.918;2022-07-03T11:40:24;97514.06;;;28.73;29.52
50774;BME280;36745;48.544;8.918;2022-07-03T11:43:27;97509.75;;;28.95;28.99
50774;BME280;36745;48.544;8.918;2022-07-03T11:46:33;97501.22;;;29.10;29.11
50774;BME280;36745;48.544;8.918;2022-07-03T11:49:47;97501.69;;;28.55;28.25
50774;BME280;36745;48.544;8.918;2022-07-03T11:52:48;97489.75;;;28.49;29.18
50774;BME280;36745;48.544;8.918;2022-07-03T11:58:55;97485.09;;;29.05;29.49
50774;BME280;36745;48.544;8.918;2022-07-03T12:02:02;97486.97;;;28.87;28.83
50774;BME280;36745;48.544;8.918;2022-07-03T12:05:13;97481.22;;;28.49;28.69
50774;BME280;36745;48.544;8.918;2022-07-03T12:08:21;97487.59;;;28.27;29.14
50774;BME280;36745;48.544;8.918;2022-07-03T12:11:22;97483.13;;;28.54;29.21
50774;BME280;36745;48.544;8.918;2022-07-03T12:17:45;97477.06;;;28.35;29.68
50774;BME280;36745;48.544;8.918;2022-07-03T12:20:46;97481.25;;;28.65;29.29
50774;BME280;36745;48.544;8.918;2022-07-03T12:23:54;97477.47;;;28.70;29.55
50774;BME280;36745;48.544;8.918;2022-07-03T12:26:55;97469.16;;;29.02;29.56
50774;BME280;36745;48.544;8.918;2022-07-03T12:29:56;97474.09;;;28.94;29.37
50774;BME280;36745;48.544;8.918;2022-07-03T12:32:56;97469.53;;;28.91;29.35
50774;BME280;36745;48.544;8.918;2022-07-03T12:36:07;97457.19;;;28.81;28.54
50774;BME280;36745;48.544;8.918;2022-07-03T12:39:08;97451.13;;;28.69;28.30
50774;BME280;36745;48.544;8.918;2022-07-03T12:42:21;97447.56;;;28.99;29.16
50774;BME280;36745;48.544;8.918;2022-07-03T12:45:26;97449.81;;;29.23;28.78
50774;BME280;36745;48.544;8.918;2022-07-03T12:48:27;97441.53;;;28.95;28.11
50774;BME280;36745;48.544;8.918;2022-07-03T12:51:50;97432.78;;;28.63;27.63
50774;BME280;36745;48.544;8.918;2022-07-03T12:54:54;97433.16;;;28.82;28.44
50774;BME280;36745;48.544;8.918;2022-07-03T12:58:15;97430.13;;;28.80;28.46
50774;BME280;36745;48.544;8.918;2022-07-03T13:01:34;97430.50;;;28.69;27.98
50774;BME280;36745;48.544;8.918;2022-07-03T13:04:37;97436.72;;;28.59;28.46
50774;BME280;36745;48.544;8.918;2022-07-03T13:07:39;97429.94;;;28.63;28.61
50774;BME280;36745;48.544;8.918;2022-07-03T13:10:40;97425.00;;;28.86;28.35
50774;BME280;36745;48.544;8.918;2022-07-03T13:13:46;97432.41;;;29.12;28.58
50774;BME280;36745;48.544;8.918;2022-07-03T13:16:49;97418.75;;;29.10;28.22
50774;BME280;36745;48.544;8.918;2022-07-03T13:19:50;97431.44;;;29.09;28.01
50774;BME280;36745;48.544;8.918;2022-07-03T13:22:52;97424.84;;;29.07;27.72
50774;BME280;36745;48.544;8.918;2022-07-03T13:25:53;97421.41;;;29.08;27.93
50774;BME280;36745;48.544;8.918;2022-07-03T13:28:53;97424.44;;;29.10;27.27
50774;BME280;36745;48.544;8.918;2022-07-03T13:31:54;97418.94;;;29.12;27.59
50774;BME280;36745;48.544;8.918;2022-07-03T13:34:54;97427.66;;;29.14;27.64
50774;BME280;36745;48.544;8.918;2022-07-03T13:37:55;97420.28;;;29.11;27.91
50774;BME280;36745;48.544;8.918;2022-07-03T13:40:55;97423.63;;;29.32;28.37
50774;BME280;36745;48.544;8.918;2022-07-03T13:43:56;97425.91;;;29.26;27.75
50774;BME280;36745;48.544;8.918;2022-07-03T13:46:56;97416.88;;;29.05;27.71
50774;BME280;36745;48.544;8.918;2022-07-03T13:49:57;97419.88;;;29.07;27.76
50774;BME280;36745;48.544;8.918;2022-07-03T13:52:57;97407.38;;;29.10;27.86
50774;BME280;36745;48.544;8.918;2022-07-03T13:55:58;97406.63;;;29.17;27.78
50774;BME280;36745;48.544;8.918;2022-07-03T13:58:59;97409.06;;;29.28;28.07
50774;BME280;36745;48.544;8.918;2022-07-03T14:01:59;97407.16;;;29.23;27.74
50774;BME280;36745;48.544;8.918;2022-07-03T14:05:00;97403.56;;;29.08;27.35
50774;BME280;36745;48.544;8.918;2022-07-03T14:08:00;97404.38;;;28.93;27.34
50774;BME280;36745;48.544;8.918;2022-07-03T14:11:01;97401.53;;;28.93;27.38
50774;BME280;36745;48.544;8.918;2022-07-03T14:14:01;97404.38;;;29.00;27.67
50774;BME280;36745;48.544;8.918;2022-07-03T14:17:02;97402.81;;;29.07;27.99
50774;BME280;36745;48.544;8.918;2022-07-03T14:20:02;97394.84;;;29.21;27.88
50774;BME280;36745;48.544;8.918;2022-07-03T14:23:03;97397.06;;;29.37;27.72
50774;BME280;36745;48.544;8.918;2022-07-03T14:26:03;97397.47;;;29.26;27.50
50774;BME280;36745;48.544;8.918;2022-07-03T14:29:04;97380.38;;;29.34;27.64
50774;BME280;36745;48.544;8.918;2022-07-03T14:32:23;97388.00;;;29.31;27.13
50774;BME280;36745;48.544;8.918;2022-07-03T14:35:30;97396.31;;;29.29;27.57
50774;BME280;36745;48.544;8.918;2022-07-03T14:38:30;97387.03;;;29.36;26.96
50774;BME280;36745;48.544;8.918;2022-07-03T14:41:30;97388.03;;;29.16;26.90
50774;BME280;36745;48.544;8.918;2022-07-03T14:44:31;97390.69;;;29.14;26.64
50774;BME280;36745;48.544;8.918;2022-07-03T14:47:31;97394.09;;;29.20;27.02
50774;BME280;36745;48.544;8.918;2022-07-03T14:50:32;97395.56;;;29.36;26.98
50774;BME280;36745;48.544;8.918;2022-07-03T14:53:32;97389.31;;;29.30;26.70
50774;BME280;36745;48.544;8.918;2022-07-03T14:56:37;97394.84;;;29.13;26.35
50774;BME280;36745;48.544;8.918;2022-07-03T15:00:05;97390.72;;;28.99;26.03
50774;BME280;36745;48.544;8.918;2022-07-03T15:03:07;97388.63;;;28.92;25.78
50774;BME280;36745;48.544;8.918;2022-07-03T15:06:12;97386.56;;;29.00;26.02
50774;BME280;36745;48.544;8.918;2022-07-03T15:09:22;97388.03;;;28.86;25.44
50774;BME280;36745;48.544;8.918;2022-07-03T15:12:25;97378.59;;;28.91;26.02
50774;BME280;36745;48.544;8.918;2022-07-03T15:15:29;97377.47;;;28.94;26.29
50774;BME280;36745;48.544;8.918;2022-07-03T15:18:30;97384.47;;;29.00;26.65
50774;BME280;36745;48.544;8.918;2022-07-03T15:21:31;97367.56;;;29.10;26.48
50774;BME280;36745;48.544;8.918;2022-07-03T15:24:35;97378.38;;;28.96;26.25
50774;BME280;36745;48.544;8.918;2022-07-03T15:27:37;97375.94;;;28.93;26.47
50774;BME280;36745;48.544;8.918;2022-07-03T15:30:48;97369.47;;;29.15;27.03
50774;BME280;36745;48.544;8.918;2022-07-03T15:33:49;97368.09;;;29.31;27.39
50774;BME280;36745;48.544;8.918;2022-07-03T15:37:26;97366.72;;;29.40;27.61
50774;BME280;36745;48.544;8.918;2022-07-03T15:40:52;97364.88;;;29.27;27.32
50774;BME280;36745;48.544;8.918;2022-07-03T15:44:31;97360.72;;;29.21;26.80
50774;BME280;36745;48.544;8.918;2022-07-03T15:47:46;97350.88;;;29.22;26.69
50774;BME280;36745;48.544;8.918;2022-07-03T15:50:59;97349.41;;;29.06;26.91
50774;BME280;36745;48.544;8.918;2022-07-03T15:54:04;97352.03;;;29.11;27.04
50774;BME280;36745;48.544;8.918;2022-07-03T15:57:17;97352.03;;;29.11;26.63
50774;BME280;36745;48.544;8.918;2022-07-03T16:00:22;97354.69;;;29.09;26.45
50774;BME280;36745;48.544;8.918;2022-07-03T16:03:28;97345.22;;;28.99;26.52
50774;BME280;36745;48.544;8.918;2022-07-03T16:06:34;97339.91;;;29.03;26.31
50774;BME280;36745;48.544;8.918;2022-07-03T16:09:39;97337.28;;;28.97;25.96
50774;BME280;36745;48.544;8.918;2022-07-03T16:12:40;97337.66;;;28.86;26.08
50774;BME280;36745;48.544;8.918;2022-07-03T16:15:42;97338.38;;;29.02;26.25
50774;BME280;36745;48.544;8.918;2022-07-03T16:18:43;97341.44;;;28.89;25.73
50774;BME280;36745;48.544;8.918;2022-07-03T16:21:44;97326.88;;;28.85;26.31
50774;BME280;36745;48.544;8.918;2022-07-03T16:24:46;97328.59;;;28.73;26.12
50774;BME280;36745;48.544;8.918;2022-07-03T16:27:46;97329.91;;;28.72;26.83
50774;BME280;36745;48.544;8.918;2022-07-03T16:30:50;97336.53;;;28.67;27.54
50774;BME280;36745;48.544;8.918;2022-07-03T16:34:37;97334.66;;;28.61;27.73
50774;BME280;36745;48.544;8.918;2022-07-03T16:37:23;97330.13;;;28.51;28.78
50774;BME280;36745;48.544;8.918;2022-07-03T16:40:26;97339.00;;;28.55;29.27
50774;BME280;36745;48.544;8.918;2022-07-03T16:43:29;97344.31;;;28.43;29.86
50774;BME280;36745;48.544;8.918;2022-07-03T16:50:13;97344.31;;;28.66;31.47
50774;BME280;36745;48.544;8.918;2022-07-03T16:53:19;97345.84;;;28.67;32.26
50774;BME280;36745;48.544;8.918;2022-07-03T16:56:41;97345.66;;;28.57;32.51
50774;BME280;36745;48.544;8.918;2022-07-03T16:59:44;97345.84;;;28.44;32.73
50774;BME280;36745;48.544;8.918;2022-07-03T17:02:46;97344.69;;;28.32;32.76